Time;durP1;ratioP1;P1;durP2;ratioP2;P2;SDS_P1;SDS_P2;PMS_P1;PMS_P2;Temp;Humidity;BMP_temperature;BMP_pressure;BME280_temperature;BME280_humidity;BME280_pressure;Samples;Min_cycle;Max_cycle;Signal;HPM_P1;HPM_P2
2021/03/14 00:00:45;;;;;;;;;;;;;;;-145.50;100.00;65435.88;4942010;28;20074;-73
2021/03/14 00:03:14;;;;;;;9.63;1.70;;;;;;;-145.50;100.00;65435.88;4952356;28;20378;-72
2021/03/14 00:05:41;;;;;;;;;;;;;;;-145.50;100.00;65435.88;4957483;28;20471;-74
2021/03/14 00:08:08;;;;;;;8.98;1.73;;;;;;;-145.50;100.00;65435.88;4953252;28;20025;-73
2021/03/14 00:10:35;;;;;;;8.48;1.75;;;;;;;-145.50;100.00;65435.88;4960111;28;20573;-73
2021/03/14 00:13:04;;;;;;;12.63;1.90;;;;;;;-145.50;100.00;65435.88;4934511;28;20082;-76
2021/03/14 00:15:30;;;;;;;15.82;2.10;;;;;;;-145.50;100.00;65435.88;4957530;28;20086;-76
2021/03/14 00:18:07;;;;;;;14.82;2.10;;;;;;;-145.50;100.00;65435.88;4956411;28;20151;-73
2021/03/14 00:20:34;;;;;;;12.00;1.83;;;;;;;-145.50;100.00;65435.88;4951539;28;20062;-74
2021/03/14 00:23:02;;;;;;;13.63;1.95;;;;;;;-145.50;100.00;65435.88;4959372;28;20117;-74
2021/03/14 00:25:28;;;;;;;11.68;2.17;;;;;;;-145.50;100.00;65435.88;4936055;28;20093;-74
2021/03/14 00:27:54;;;;;;;13.68;1.85;;;;;;;-145.50;100.00;65435.88;4941802;28;20090;-74
2021/03/14 00:30:21;;;;;;;13.27;2.40;;;;;;;-145.50;100.00;65435.88;4950435;28;20069;-75
2021/03/14 00:32:47;;;;;;;10.57;2.05;;;;;;;-145.50;100.00;65435.88;4954309;28;20054;-73
2021/03/14 00:35:16;;;;;;;11.23;1.92;;;;;;;-145.50;100.00;65435.88;4948161;28;20081;-74
2021/03/14 00:37:42;;;;;;;15.27;3.17;;;;;;;-145.50;100.00;65435.88;4942908;28;20110;-74
2021/03/14 00:40:18;;;;;;;15.48;2.55;;;;;;;-145.50;100.00;65435.88;4943978;28;20522;-74
2021/03/14 00:42:44;;;;;;;15.60;2.40;;;;;;;-145.50;100.00;65435.88;4954201;28;20149;-73
2021/03/14 00:45:26;;;;;;;10.52;2.10;;;;;;;-145.50;100.00;65435.88;4941752;28;20435;-73
2021/03/14 00:47:52;;;;;;;15.23;2.17;;;;;;;-145.50;100.00;65435.88;4949394;28;20143;-73
2021/03/14 00:50:18;;;;;;;16.27;2.30;;;;;;;-145.50;100.00;65435.88;4957426;28;20554;-73
2021/03/14 00:52:44;;;;;;;14.07;2.38;;;;;;;-145.50;100.00;65435.88;4934520;28;20086;-73
2021/03/14 00:55:11;;;;;;;8.65;1.83;;;;;;;-145.50;100.00;65435.88;4961811;28;20130;-73
2021/03/14 00:57:37;;;;;;;16.15;2.83;;;;;;;-145.50;100.00;65435.88;4960819;28;20134;-73
2021/03/14 01:00:06;;;;;;;12.07;2.45;;;;;;;-145.50;100.00;65435.88;4950782;28;20689;-74
2021/03/14 01:02:32;;;;;;;14.82;1.88;;;;;;;-145.50;100.00;65435.88;4958890;28;20054;-74
2021/03/14 01:04:58;;;;;;;12.68;2.88;;;;;;;-145.50;100.00;65435.88;4955084;28;20563;-75
2021/03/14 01:07:24;;;;;;;8.52;1.95;;;;;;;-145.50;100.00;65435.88;4959084;28;20062;-75
2021/03/14 01:09:50;;;;;;;11.50;2.42;;;;;;;-145.50;100.00;65435.88;4935577;28;20054;-75
2021/03/14 01:12:16;;;;;;;11.57;2.50;;;;;;;-145.50;100.00;65435.88;4958147;28;20715;-74
2021/03/14 01:14:42;;;;;;;14.10;2.67;;;;;;;-145.50;100.00;65435.88;4947032;28;20065;-72
2021/03/14 01:17:08;;;;;;;12.45;2.80;;;;;;;-145.50;100.00;65435.88;4940522;28;20125;-72
2021/03/14 01:19:34;;;;;;;8.18;1.60;;;;;;;-145.50;100.00;65435.88;4959993;28;20050;-73
2021/03/14 01:22:01;;;;;;;13.40;2.53;;;;;;;-145.50;100.00;65435.88;4955584;28;20064;-74
2021/03/14 01:24:27;;;;;;;14.07;2.33;;;;;;;-145.50;100.00;65435.88;4942159;28;21378;-74
2021/03/14 01:26:53;;;;;;;8.05;1.58;;;;;;;-145.50;100.00;65435.88;4934548;28;20122;-74
2021/03/14 01:29:19;;;;;;;16.33;2.40;;;;;;;-145.50;100.00;65435.88;4956739;28;20538;-75
2021/03/14 01:31:45;;;;;;;10.40;2.17;;;;;;;-145.50;100.00;65435.88;4938282;28;20176;-75
2021/03/14 01:34:12;;;;;;;9.07;2.47;;;;;;;-145.50;100.00;65435.88;4956721;28;20141;-75
2021/03/14 01:36:39;;;;;;;13.63;2.55;;;;;;;-145.50;100.00;65435.88;4942892;28;20063;-75
2021/03/14 01:39:05;;;;;;;16.60;1.92;;;;;;;-145.50;100.00;65435.88;4938446;28;20101;-75
2021/03/14 01:41:31;;;;;;;14.32;2.40;;;;;;;-145.50;100.00;65435.88;4939643;28;20090;-75
2021/03/14 01:43:58;;;;;;;14.80;1.80;;;;;;;-145.50;100.00;65435.88;4934316;28;20164;-75
2021/03/14 01:46:25;;;;;;;16.42;2.63;;;;;;;-145.50;100.00;65435.88;4948800;28;20082;-75
2021/03/14 01:49:12;;;;;;;14.10;2.35;;;;;;;-145.50;100.00;65435.88;4962267;28;20073;-75
2021/03/14 01:51:40;;;;;;;17.65;2.45;;;;;;;-145.50;100.00;65435.88;4950655;28;20054;-75
2021/03/14 01:54:07;;;;;;;15.30;2.40;;;;;;;-145.50;100.00;65435.88;4960716;28;20093;-75
2021/03/14 01:56:33;;;;;;;16.65;2.78;;;;;;;-145.50;100.00;65435.88;4959897;28;20077;-75
2021/03/14 01:59:00;;;;;;;11.55;1.90;;;;;;;-145.50;100.00;65435.88;4968133;28;20093;-75
2021/03/14 02:01:26;;;;;;;9.68;1.90;;;;;;;-145.50;100.00;65435.88;4963086;28;20078;-75
2021/03/14 02:03:52;;;;;;;11.05;1.75;;;;;;;-145.50;100.00;65435.88;4967836;28;20093;-75
2021/03/14 02:06:18;;;;;;;12.07;2.15;;;;;;;-145.50;100.00;65435.88;4961442;28;20065;-75
2021/03/14 02:08:45;;;;;;;11.65;2.30;;;;;;;-145.50;100.00;65435.88;4946297;28;20145;-75
2021/03/14 02:11:11;;;;;;;8.98;1.92;;;;;;;-145.50;100.00;65435.88;4954229;28;20086;-75
2021/03/14 02:13:40;;;;;;;14.85;2.28;;;;;;;-145.50;100.00;65435.88;4950073;28;20653;-75
2021/03/14 02:16:10;;;;;;;9.85;1.95;;;;;;;-145.50;100.00;65435.88;4962635;28;20058;-75
2021/03/14 02:18:40;;;;;;;14.63;1.98;;;;;;;-145.50;100.00;65435.88;4967588;28;20329;-75
2021/03/14 02:21:07;;;;;;;18.85;2.60;;;;;;;-145.50;100.00;65435.88;4947353;28;20535;-75
2021/03/14 02:24:05;;;;;;;9.60;1.80;;;;;;;-145.50;100.00;65435.88;4952147;28;20086;-74
2021/03/14 02:26:45;;;;;;;14.50;1.92;;;;;;;-145.50;100.00;65435.88;4946370;28;20113;-74
2021/03/14 02:29:20;;;;;;;11.13;1.70;;;;;;;-145.50;100.00;65435.88;4960278;28;20068;-75
2021/03/14 02:31:51;;;;;;;12.63;2.13;;;;;;;-145.50;100.00;65435.88;4968518;28;20069;-75
2021/03/14 02:34:26;;;;;;;20.20;2.65;;;;;;;-145.50;100.00;65435.88;4943711;28;20117;-74
2021/03/14 02:36:53;;;;;;;13.93;2.25;;;;;;;-145.50;100.00;65435.88;4962013;28;20494;-75
2021/03/14 02:39:22;;;;;;;9.68;2.03;;;;;;;-145.50;100.00;65435.88;4939105;28;20055;-75
2021/03/14 02:41:52;;;;;;;;;;;;;;;-145.50;100.00;65435.88;4965076;28;20162;-75
2021/03/14 02:44:20;;;;;;;12.30;2.13;;;;;;;-145.50;100.00;65435.88;4959244;28;19968;-75
2021/03/14 02:46:46;;;;;;;14.15;2.42;;;;;;;-145.50;100.00;65435.88;4947705;28;20082;-74
2021/03/14 02:49:13;;;;;;;13.07;2.08;;;;;;;-145.50;100.00;65435.88;4967183;28;20096;-75
2021/03/14 02:51:41;;;;;;;14.57;1.80;;;;;;;-145.50;100.00;65435.88;4953065;28;20058;-75
2021/03/14 02:54:08;;;;;;;11.02;1.75;;;;;;;-145.50;100.00;65435.88;4945246;28;20063;-74
2021/03/14 02:56:36;;;;;;;16.33;2.72;;;;;;;-145.50;100.00;65435.88;4943325;28;20495;-74
2021/03/14 02:59:04;;;;;;;15.60;2.38;;;;;;;-145.50;100.00;65435.88;4949650;28;20141;-74
2021/03/14 03:01:31;;;;;;;8.70;1.65;;;;;;;-145.50;100.00;65435.88;4943225;28;20140;-73
2021/03/14 03:03:59;;;;;;;8.07;1.70;;;;;;;-145.50;100.00;65435.88;4947491;28;20099;-74
2021/03/14 03:06:27;;;;;;;10.13;1.80;;;;;;;-145.50;100.00;65435.88;4941970;28;20179;-74
2021/03/14 03:08:53;;;;;;;9.88;1.90;;;;;;;-145.50;100.00;65435.88;4966376;28;20109;-74
2021/03/14 03:11:20;;;;;;;9.32;1.75;;;;;;;-145.50;100.00;65435.88;4965526;28;20055;-73
2021/03/14 03:13:49;;;;;;;11.95;2.00;;;;;;;-145.50;100.00;65435.88;4945831;28;20059;-74
2021/03/14 03:16:17;;;;;;;18.73;2.50;;;;;;;-145.50;100.00;65435.88;4949827;28;20584;-75
2021/03/14 03:18:44;;;;;;;14.15;2.28;;;;;;;-145.50;100.00;65435.88;4957469;28;20058;-74
2021/03/14 03:21:11;;;;;;;7.68;1.58;;;;;;;-145.50;100.00;65435.88;4946366;28;20117;-74
2021/03/14 03:23:37;;;;;;;11.35;2.50;;;;;;;-145.50;100.00;65435.88;4957139;28;20105;-74
2021/03/14 03:26:05;;;;;;;17.42;2.55;;;;;;;-145.50;100.00;65435.88;4967239;28;20063;-75
2021/03/14 03:28:31;;;;;;;13.80;2.33;;;;;;;-145.50;100.00;65435.88;4960287;28;20520;-75
2021/03/14 03:30:57;;;;;;;8.32;1.98;;;;;;;-145.50;100.00;65435.88;4965713;28;20483;-74
2021/03/14 03:33:24;;;;;;;15.13;2.60;;;;;;;-145.50;100.00;65435.88;4961223;28;20621;-74
2021/03/14 03:35:50;;;;;;;13.75;2.35;;;;;;;-145.50;100.00;65435.88;4960126;28;20113;-74
2021/03/14 03:38:16;;;;;;;14.75;2.78;;;;;;;-145.50;100.00;65435.88;4966339;28;20059;-74
2021/03/14 03:40:42;;;;;;;16.52;2.00;;;;;;;-145.50;100.00;65435.88;4960673;28;20739;-74
2021/03/14 03:43:08;;;;;;;14.65;2.25;;;;;;;-145.50;100.00;65435.88;4964412;28;20093;-74
2021/03/14 03:45:42;;;;;;;14.55;2.42;;;;;;;-145.50;100.00;65435.88;4956170;28;20050;-75
2021/03/14 03:48:14;;;;;;;15.38;2.42;;;;;;;-145.50;100.00;65435.88;4946106;28;20097;-74
2021/03/14 03:50:54;;;;;;;18.25;2.67;;;;;;;-145.50;100.00;65435.88;4962458;28;20054;-74
2021/03/14 03:53:21;;;;;;;11.05;2.20;;;;;;;-145.50;100.00;65435.88;4963803;28;20553;-75
2021/03/14 03:55:49;;;;;;;12.48;1.90;;;;;;;-145.50;100.00;65435.88;4962600;28;20157;-75
2021/03/14 03:58:18;;;;;;;17.40;3.08;;;;;;;-145.50;100.00;65435.88;4943146;28;20059;-74
2021/03/14 04:00:45;;;;;;;13.40;1.83;;;;;;;-145.50;100.00;65435.88;4962223;28;20082;-74
2021/03/14 04:03:12;;;;;;;12.82;1.95;;;;;;;-145.50;100.00;65435.88;4956815;28;20146;-74
2021/03/14 04:05:39;;;;;;;11.27;1.70;;;;;;;-145.50;100.00;65435.88;4947902;28;20059;-74
2021/03/14 04:08:06;;;;;;;18.65;2.63;;;;;;;-145.50;100.00;65435.88;4941702;28;20178;-75
2021/03/14 04:10:32;;;;;;;18.88;2.50;;;;;;;-145.50;100.00;65435.88;4944360;28;20142;-74
2021/03/14 04:13:00;;;;;;;11.40;2.08;;;;;;;-145.50;100.00;65435.88;4964887;28;20057;-75
2021/03/14 04:15:30;;;;;;;15.32;2.17;;;;;;;-145.50;100.00;65435.88;4938109;28;20668;-75
2021/03/14 04:17:56;;;;;;;14.35;2.10;;;;;;;-145.50;100.00;65435.88;4965478;28;20063;-74
2021/03/14 04:20:32;;;;;;;12.98;2.00;;;;;;;-145.50;100.00;65435.88;4959875;28;20054;-74
2021/03/14 04:23:03;;;;;;;14.23;2.72;;;;;;;-145.50;100.00;65435.88;4964751;28;20074;-74
2021/03/14 04:25:30;;;;;;;14.40;2.30;;;;;;;-145.50;100.00;65435.88;4959682;28;20089;-74
2021/03/14 04:27:58;;;;;;;17.33;2.67;;;;;;;-145.50;100.00;65435.88;4961781;28;20082;-74
2021/03/14 04:30:26;;;;;;;17.40;2.75;;;;;;;-145.50;100.00;65435.88;4956182;28;20146;-74
2021/03/14 04:32:54;;;;;;;14.38;2.65;;;;;;;-145.50;100.00;65435.88;4964166;28;20765;-74
2021/03/14 04:35:21;;;;;;;13.57;2.50;;;;;;;-145.50;100.00;65435.88;4945829;28;20063;-75
2021/03/14 04:37:48;;;;;;;11.70;2.08;;;;;;;-145.50;100.00;65435.88;4942226;28;20554;-75
2021/03/14 04:40:15;;;;;;;12.13;2.25;;;;;;;-145.50;100.00;65435.88;4959536;28;20060;-74
2021/03/14 04:42:45;;;;;;;13.73;2.08;;;;;;;-145.50;100.00;65435.88;4951463;28;20062;-75
2021/03/14 04:45:14;;;;;;;16.90;2.00;;;;;;;-145.50;100.00;65435.88;4964432;28;20558;-75
2021/03/14 04:47:42;;;;;;;15.27;2.38;;;;;;;-145.50;100.00;65435.88;4956447;28;20051;-75
2021/03/14 04:50:13;;;;;;;10.75;1.95;;;;;;;-145.50;100.00;65435.88;4945041;28;20078;-75
2021/03/14 04:52:44;;;;;;;15.77;2.22;;;;;;;-145.50;100.00;65435.88;4941415;28;20054;-75
2021/03/14 04:55:14;;;;;;;10.80;1.80;;;;;;;-145.50;100.00;65435.88;4958976;28;20146;-75
2021/03/14 04:57:41;;;;;;;17.65;2.78;;;;;;;-145.50;100.00;65435.88;4944169;28;20474;-74
2021/03/14 05:00:10;;;;;;;10.40;1.98;;;;;;;-145.50;100.00;65435.88;4942709;28;20068;-74
2021/03/14 05:02:40;;;;;;;16.27;3.67;;;;;;;-145.50;100.00;65435.88;4946945;28;20188;-75
2021/03/14 05:05:08;;;;;;;7.35;1.48;;;;;;;-145.50;100.00;65435.88;4939637;28;20063;-75
2021/03/14 05:07:36;;;;;;;14.10;2.67;;;;;;;-145.50;100.00;65435.88;4962788;28;20051;-75
2021/03/14 05:10:07;;;;;;;16.60;2.30;;;;;;;-145.50;100.00;65435.88;4952638;28;20575;-75
2021/03/14 05:12:34;;;;;;;17.13;2.50;;;;;;;-145.50;100.00;65435.88;4961319;28;20463;-75
2021/03/14 05:15:02;;;;;;;16.77;2.10;;;;;;;-145.50;100.00;65435.88;4958150;28;20122;-75
2021/03/14 05:17:28;;;;;;;16.08;2.22;;;;;;;-145.50;100.00;65435.88;4963690;28;20090;-76
2021/03/14 05:19:55;;;;;;;14.55;3.25;;;;;;;-145.50;100.00;65435.88;4958959;28;20778;-75
2021/03/14 05:22:22;;;;;;;15.20;2.40;;;;;;;-145.50;100.00;65435.88;4962218;28;20086;-75
2021/03/14 05:24:49;;;;;;;15.35;2.45;;;;;;;-145.50;100.00;65435.88;4941560;28;20515;-75
2021/03/14 05:27:16;;;;;;;10.30;1.98;;;;;;;-145.50;100.00;65435.88;4959167;28;20766;-76
2021/03/14 05:29:45;;;;;;;20.60;2.40;;;;;;;-145.50;100.00;65435.88;4962692;28;20059;-75
2021/03/14 05:32:11;;;;;;;6.93;2.35;;;;;;;-145.50;100.00;65435.88;4960976;28;20066;-76
2021/03/14 05:34:37;;;;;;;16.02;2.55;;;;;;;-145.50;100.00;65435.88;4958066;28;20501;-76
2021/03/14 05:37:04;;;;;;;13.38;3.17;;;;;;;-145.50;100.00;65435.88;4952292;28;20143;-75
2021/03/14 05:39:30;;;;;;;14.93;3.97;;;;;;;-145.50;100.00;65435.88;4960476;28;20113;-77
2021/03/14 05:41:56;;;;;;;14.38;3.03;;;;;;;-145.50;100.00;65435.88;4959736;28;20058;-76
2021/03/14 05:44:22;;;;;;;14.98;4.22;;;;;;;-145.50;100.00;65435.88;4963349;28;20526;-76
2021/03/14 05:46:48;;;;;;;14.32;3.55;;;;;;;-145.50;100.00;65435.88;4946228;28;20063;-76
2021/03/14 05:49:15;;;;;;;13.82;2.97;;;;;;;-145.50;100.00;65435.88;4954678;28;20062;-76
2021/03/14 05:51:44;;;;;;;14.57;3.50;;;;;;;-145.50;100.00;65435.88;4941592;28;20063;-76
2021/03/14 05:54:17;;;;;;;11.23;3.05;;;;;;;-145.50;100.00;65435.88;4941571;28;20058;-76
2021/03/14 05:56:46;;;;;;;9.43;3.38;;;;;;;-145.50;100.00;65435.88;4962113;28;20062;-76
2021/03/14 05:59:14;;;;;;;9.07;3.38;;;;;;;-145.50;100.00;65435.88;4941743;28;20050;-76
2021/03/14 06:01:47;;;;;;;8.63;3.70;;;;;;;-145.50;100.00;65435.88;4963559;28;20517;-76
2021/03/14 06:04:15;;;;;;;12.13;4.65;;;;;;;-145.50;100.00;65435.88;4959396;28;20061;-76
2021/03/14 06:06:42;;;;;;;5.97;3.00;;;;;;;-145.50;100.00;65435.88;4932112;28;20133;-76
2021/03/14 06:09:08;;;;;;;9.00;3.60;;;;;;;-145.50;100.00;65435.88;4943914;28;20079;-74
2021/03/14 06:11:34;;;;;;;10.25;3.90;;;;;;;-145.50;100.00;65435.88;4953909;28;20065;-76
2021/03/14 06:14:01;;;;;;;13.38;4.43;;;;;;;-145.50;100.00;65435.88;4966453;28;20661;-75
2021/03/14 06:16:27;;;;;;;12.52;4.07;;;;;;;-145.50;100.00;65435.88;4958804;28;20156;-75
2021/03/14 06:18:54;;;;;;;12.48;4.32;;;;;;;-145.50;100.00;65435.88;4958802;28;20055;-75
2021/03/14 06:21:25;;;;;;;8.77;4.05;;;;;;;-145.50;100.00;65435.88;4957211;28;20054;-75
2021/03/14 06:24:07;;;;;;;7.25;3.40;;;;;;;-145.50;100.00;65435.88;4963433;28;20098;-75
2021/03/14 06:26:45;;;;;;;11.68;4.40;;;;;;;-145.50;100.00;65435.88;4964131;28;20439;-76
2021/03/14 06:29:17;;;;;;;10.90;3.97;;;;;;;-145.50;100.00;65435.88;4960088;28;20051;-76
2021/03/14 06:31:48;;;;;;;13.70;4.78;;;;;;;-145.50;100.00;65435.88;4942768;28;20292;-76
2021/03/14 06:34:27;;;;;;;9.60;4.32;;;;;;;-145.50;100.00;65435.88;4939707;28;20198;-75
2021/03/14 06:36:54;;;;;;;13.02;5.30;;;;;;;-145.50;100.00;65435.88;4964189;28;20170;-75
2021/03/14 06:39:27;;;;;;;10.07;4.60;;;;;;;-145.50;100.00;65435.88;4957768;28;20059;-75
2021/03/14 06:41:54;;;;;;;11.82;4.18;;;;;;;-145.50;100.00;65435.88;4963819;28;20098;-75
2021/03/14 06:44:40;;;;;;;8.07;3.88;;;;;;;-145.50;100.00;65435.88;4943521;28;20052;-75
2021/03/14 06:47:07;;;;;;;11.43;4.10;;;;;;;-145.50;100.00;65435.88;4963877;28;20053;-75
2021/03/14 06:49:38;;;;;;;7.20;3.33;;;;;;;-145.50;100.00;65435.88;4960868;28;20081;-76
2021/03/14 06:52:05;;;;;;;8.75;3.63;;;;;;;-145.50;100.00;65435.88;4948321;28;20094;-76
2021/03/14 06:54:39;;;;;;;11.18;3.88;;;;;;;-145.50;100.00;65435.88;4965945;28;20133;-76
2021/03/14 06:57:11;;;;;;;8.27;3.55;;;;;;;-145.50;100.00;65435.88;4961583;28;20444;-76
2021/03/14 06:59:43;;;;;;;7.88;4.28;;;;;;;-145.50;100.00;65435.88;4962821;28;20483;-76
2021/03/14 07:02:14;;;;;;;7.65;4.53;;;;;;;-145.50;100.00;65435.88;4955401;28;20086;-76
2021/03/14 07:04:51;;;;;;;8.35;4.38;;;;;;;-145.50;100.00;65435.88;4963453;28;20172;-75
2021/03/14 07:07:31;;;;;;;7.43;4.07;;;;;;;-145.50;100.00;65435.88;4960903;28;20495;-75
2021/03/14 07:10:00;;;;;;;7.55;4.18;;;;;;;-145.50;100.00;65435.88;4965380;28;20129;-75
2021/03/14 07:12:45;;;;;;;6.95;4.15;;;;;;;-145.50;100.00;65435.88;4939591;28;20054;-75
2021/03/14 07:15:12;;;;;;;9.35;4.43;;;;;;;-145.50;100.00;65435.88;4947085;28;20055;-75
2021/03/14 07:17:39;;;;;;;7.07;4.45;;;;;;;-145.50;100.00;65435.88;4960017;28;20473;-75
2021/03/14 07:20:08;;;;;;;7.07;4.55;;;;;;;-145.50;100.00;65435.88;4949915;28;20050;-75
2021/03/14 07:22:35;;;;;;;7.85;4.78;;;;;;;-145.50;100.00;65435.88;4961356;28;20109;-75
2021/03/14 07:25:03;;;;;;;9.30;5.13;;;;;;;-145.50;100.00;65435.88;4949462;28;20144;-75
2021/03/14 07:27:29;;;;;;;11.40;5.45;;;;;;;-145.50;100.00;65435.88;4946238;28;20105;-75
2021/03/14 07:30:00;;;;;;;8.48;5.05;;;;;;;-145.50;100.00;65435.88;4957550;28;20051;-75
2021/03/14 07:32:28;;;;;;;11.82;5.15;;;;;;;-145.50;100.00;65435.88;4950578;28;20061;-75
2021/03/14 07:34:54;;;;;;;12.80;5.85;;;;;;;-145.50;100.00;65435.88;4958651;28;20059;-75
2021/03/14 07:37:21;;;;;;;14.77;6.05;;;;;;;-145.50;100.00;65435.88;4948518;28;20059;-75
2021/03/14 07:39:47;;;;;;;8.07;5.80;;;;;;;-145.50;100.00;65435.88;4937394;28;20089;-75
2021/03/14 07:42:21;;;;;;;14.88;6.35;;;;;;;-145.50;100.00;65435.88;4943395;28;20055;-75
2021/03/14 07:44:47;;;;;;;11.48;7.30;;;;;;;-145.50;100.00;65435.88;4961522;28;20090;-75
2021/03/14 07:47:15;;;;;;;11.27;6.50;;;;;;;-145.50;100.00;65435.88;4962288;28;20086;-75
2021/03/14 07:49:48;;;;;;;13.35;7.05;;;;;;;-145.50;100.00;65435.88;4945281;28;20051;-75
2021/03/14 07:52:21;;;;;;;12.38;7.25;;;;;;;-145.50;100.00;65435.88;4961042;28;20141;-75
2021/03/14 07:54:51;;;;;;;17.67;7.47;;;;;;;-145.50;100.00;65435.88;4947081;28;20059;-75
2021/03/14 07:57:21;;;;;;;13.00;6.55;;;;;;;-145.50;100.00;65435.88;4961501;28;20058;-75
2021/03/14 07:59:47;;;;;;;11.70;7.63;;;;;;;-145.50;100.00;65435.88;4948665;28;20140;-75
2021/03/14 08:02:16;;;;;;;12.98;6.65;;;;;;;-145.50;100.00;65435.88;4959445;28;20114;-76
2021/03/14 08:04:50;;;;;;;15.07;7.60;;;;;;;-145.50;100.00;65435.88;4960314;28;20137;-76
2021/03/14 08:07:36;;;;;;;14.82;8.05;;;;;;;-145.50;100.00;65435.88;4940885;28;20101;-75
2021/03/14 08:10:05;;;;;;;16.50;7.40;;;;;;;-145.50;100.00;65435.88;4965971;28;20047;-75
2021/03/14 08:12:36;;;;;;;16.67;8.00;;;;;;;-145.50;100.00;65435.88;4961421;28;20153;-76
2021/03/14 08:15:22;;;;;;;14.52;8.10;;;;;;;-145.50;100.00;65435.88;4941477;28;20086;-76
2021/03/14 08:17:49;;;;;;;15.55;8.05;;;;;;;-145.50;100.00;65435.88;4949152;28;20058;-76
2021/03/14 08:20:34;;;;;;;19.88;7.90;;;;;;;-145.50;100.00;65435.88;4953290;28;20054;-76
2021/03/14 08:23:02;;;;;;;14.55;7.90;;;;;;;-145.50;100.00;65435.88;4946848;28;20143;-76
2021/03/14 08:25:36;;;;;;;16.15;8.52;;;;;;;-145.50;100.00;65435.88;4960760;28;20160;-77
2021/03/14 08:28:47;;;;;;;17.65;8.25;;;;;;;-145.50;100.00;65435.88;4967613;28;20837;-77
2021/03/14 08:31:13;;;;;;;16.90;8.05;;;;;;;-145.50;100.00;65435.88;4939987;28;20149;-77
2021/03/14 08:33:40;;;;;;;23.92;8.45;;;;;;;-145.50;100.00;65435.88;4944608;28;20133;-77
2021/03/14 08:36:12;;;;;;;16.60;8.95;;;;;;;-145.50;100.00;65435.88;4959930;28;20581;-77
2021/03/14 08:38:47;;;;;;;19.83;7.70;;;;;;;-145.50;100.00;65435.88;4961541;28;20050;-77
2021/03/14 08:41:40;;;;;;;16.80;7.90;;;;;;;-145.50;100.00;65435.88;4959776;28;20054;-77
2021/03/14 08:44:08;;;;;;;18.05;7.15;;;;;;;-145.50;100.00;65435.88;4966854;28;20106;-77
2021/03/14 08:46:45;;;;;;;17.65;7.30;;;;;;;-145.50;100.00;65435.88;4956972;28;20051;-77
2021/03/14 08:49:19;;;;;;;15.10;6.38;;;;;;;-145.50;100.00;65435.88;4962946;28;20481;-77
2021/03/14 08:51:46;;;;;;;20.88;7.13;;;;;;;-145.50;100.00;65435.88;4944741;28;20082;-77
2021/03/14 08:54:35;;;;;;;12.48;6.53;;;;;;;-145.50;100.00;65435.88;4962940;28;20062;-75
2021/03/14 08:57:04;;;;;;;15.73;6.53;;;;;;;-145.50;100.00;65435.88;4964126;28;20133;-78
2021/03/14 08:59:31;;;;;;;20.15;6.65;;;;;;;-145.50;100.00;65435.88;4953890;28;20055;-75
2021/03/14 09:01:59;;;;;;;14.93;6.32;;;;;;;-145.50;100.00;65435.88;4943297;28;20070;-76
2021/03/14 09:04:34;;;;;;;19.15;6.47;;;;;;;-145.50;100.00;65435.88;4957469;28;20058;-76
2021/03/14 09:07:11;;;;;;;18.58;7.03;;;;;;;-145.50;100.00;65435.88;4965727;28;20054;-77
2021/03/14 09:09:38;;;;;;;14.73;6.20;;;;;;;-145.50;100.00;65435.88;4957244;28;20106;-76
2021/03/14 09:12:11;;;;;;;12.23;5.88;;;;;;;-145.50;100.00;65435.88;4963698;28;20411;-76
2021/03/14 09:14:44;;;;;;;12.82;5.53;;;;;;;-145.50;100.00;65435.88;4955287;28;20804;-76
2021/03/14 09:17:16;;;;;;;13.50;5.30;;;;;;;-145.50;100.00;65435.88;4959704;28;20062;-76
2021/03/14 09:19:50;;;;;;;14.10;5.85;;;;;;;-145.50;100.00;65435.88;4964948;28;20062;-77
2021/03/14 09:22:27;;;;;;;19.27;5.60;;;;;;;-145.50;100.00;65435.88;4941403;28;20073;-76
2021/03/14 09:24:58;;;;;;;16.58;5.85;;;;;;;-145.50;100.00;65435.88;4947114;28;20059;-77
2021/03/14 09:27:32;;;;;;;12.85;5.40;;;;;;;-145.50;100.00;65435.88;4957217;28;20944;-77
2021/03/14 09:30:19;;;;;;;13.82;5.47;;;;;;;-145.50;100.00;65435.88;4943596;28;20558;-77
2021/03/14 09:32:50;;;;;;;13.60;4.95;;;;;;;-145.50;100.00;65435.88;4958575;28;20125;-77
2021/03/14 09:35:29;;;;;;;14.60;5.82;;;;;;;-145.50;100.00;65435.88;4963279;28;20054;-77
2021/03/14 09:37:57;;;;;;;14.80;5.80;;;;;;;-145.50;100.00;65435.88;4938971;28;20192;-75
2021/03/14 09:40:27;;;;;;;12.23;4.93;;;;;;;-145.50;100.00;65435.88;4959418;28;20086;-76
2021/03/14 09:43:09;;;;;;;12.43;5.00;;;;;;;-145.50;100.00;65435.88;4955490;28;20101;-76
2021/03/14 09:45:42;;;;;;;12.15;4.15;;;;;;;-145.50;100.00;65435.88;4964008;28;20470;-76
2021/03/14 09:48:19;;;;;;;13.65;5.15;;;;;;;-145.50;100.00;65435.88;4959479;28;20058;-76
2021/03/14 09:50:56;;;;;;;19.77;5.63;;;;;;;-145.50;100.00;65435.88;4944647;28;20139;-76
2021/03/14 09:53:31;;;;;;;16.00;5.45;;;;;;;-145.50;100.00;65435.88;4960139;28;20090;-77
2021/03/14 09:55:59;;;;;;;14.70;5.05;;;;;;;-145.50;100.00;65435.88;4957785;28;20102;-76
2021/03/14 09:58:27;;;;;;;14.13;5.07;;;;;;;-145.50;100.00;65435.88;4945400;28;20140;-76
2021/03/14 10:00:55;;;;;;;16.00;4.67;;;;;;;-145.50;100.00;65435.88;4958266;28;20081;-77
2021/03/14 10:03:26;;;;;;;12.75;4.57;;;;;;;-145.50;100.00;65435.88;4942598;28;20415;-76
2021/03/14 10:05:57;;;;;;;18.92;4.90;;;;;;;-145.50;100.00;65435.88;4959374;28;20434;-76
2021/03/14 10:08:26;;;;;;;12.75;5.00;;;;;;;-145.50;100.00;65435.88;4965132;28;20132;-76
2021/03/14 10:10:56;;;;;;;12.75;5.15;;;;;;;-145.50;100.00;65435.88;4959290;28;20125;-77
2021/03/14 10:13:25;;;;;;;12.55;4.10;;;;;;;-145.50;100.00;65435.88;4970167;28;20164;-76
2021/03/14 10:15:55;;;;;;;8.90;4.00;;;;;;;-145.50;100.00;65435.88;4960916;28;20423;-76
2021/03/14 10:18:24;;;;;;;10.10;4.07;;;;;;;-145.50;100.00;65435.88;4948651;28;20051;-76
2021/03/14 10:20:51;;;;;;;12.57;4.15;;;;;;;-145.50;100.00;65435.88;4951397;28;20082;-76
2021/03/14 10:23:24;;;;;;;10.38;3.95;;;;;;;-145.50;100.00;65435.88;4956506;28;20153;-76
2021/03/14 10:25:50;;;;;;;7.93;3.10;;;;;;;-145.50;100.00;65435.88;4965505;28;20063;-77
2021/03/14 10:28:19;;;;;;;13.30;4.07;;;;;;;-145.50;100.00;65435.88;4967607;28;20054;-77
2021/03/14 10:30:47;;;;;;;13.88;3.75;;;;;;;-145.50;100.00;65435.88;4973181;28;20069;-76
2021/03/14 10:33:29;;;;;;;15.45;3.70;;;;;;;-145.50;100.00;65435.88;4953297;28;20201;-77
2021/03/14 10:36:10;;;;;;;7.15;3.17;;;;;;;-145.50;100.00;65435.88;4954984;28;20145;-76
2021/03/14 10:38:41;;;;;;;10.50;3.85;;;;;;;-145.50;100.00;65435.88;4950145;28;20066;-76
2021/03/14 10:41:21;;;;;;;11.70;3.20;;;;;;;-145.50;100.00;65435.88;4964143;28;20150;-76
2021/03/14 10:43:55;;;;;;;10.23;3.42;;;;;;;-145.50;100.00;65435.88;4960098;28;20059;-77
2021/03/14 10:46:41;;;;;;;9.75;3.25;;;;;;;-145.50;100.00;65435.88;4965001;28;20062;-76
2021/03/14 10:49:11;;;;;;;10.10;3.00;;;;;;;-145.50;100.00;65435.88;4962870;28;20573;-76
2021/03/14 10:51:40;;;;;;;8.10;3.00;;;;;;;-145.50;100.00;65435.88;4957483;28;20063;-77
2021/03/14 10:54:08;;;;;;;10.00;2.88;;;;;;;-145.50;100.00;65435.88;4966183;28;20054;-77
2021/03/14 10:56:40;;;;;;;10.25;3.85;;;;;;;-145.50;100.00;65435.88;4965546;28;20058;-77
2021/03/14 10:59:21;;;;;;;13.70;3.33;;;;;;;-145.50;100.00;65435.88;4949922;28;20070;-77
2021/03/14 11:02:08;;;;;;;9.50;3.15;;;;;;;-145.50;100.00;65435.88;4939336;28;20059;-76
2021/03/14 11:04:36;;;;;;;9.60;2.88;;;;;;;-145.50;100.00;65435.88;4930775;28;20145;-75
2021/03/14 11:07:25;;;;;;;11.52;3.17;;;;;;;-145.50;100.00;65435.88;4935751;28;20146;-76
2021/03/14 11:10:09;;;;;;;7.88;2.28;;;;;;;-145.50;100.00;65435.88;4963988;28;20062;-76
2021/03/14 11:12:38;;;;;;;12.73;2.22;;;;;;;-145.50;100.00;65435.88;4957379;28;20134;-77
2021/03/14 11:15:29;;;;;;;3.80;1.73;;;;;;;-145.50;100.00;65435.88;4964335;28;20542;-75
2021/03/14 11:17:57;;;;;;;7.47;2.15;;;;;;;-145.50;100.00;65435.88;4955830;28;20070;-76